sensor_id;sensor_type;location;lat;lon;timestamp;P1;durP1;ratioP1;P2;durP2;ratioP2
30681;SDS011;17439;48.092;11.842;2024-03-22T00:01:01;15.20;;;8.82;;
30681;SDS011;17439;48.092;11.842;2024-03-22T00:03:27;16.33;;;7.53;;
30681;SDS011;17439;48.092;11.842;2024-03-22T00:05:52;15.48;;;8.15;;
30681;SDS011;17439;48.092;11.842;2024-03-22T00:08:18;15.15;;;8.52;;
30681;SDS011;17439;48.092;11.842;2024-03-22T00:10:44;13.35;;;6.45;;
30681;SDS011;17439;48.092;11.842;2024-03-22T00:13:09;13.20;;;7.00;;
30681;SDS011;17439;48.092;11.842;2024-03-22T00:15:35;15.80;;;8.73;;
30681;SDS011;17439;48.092;11.842;2024-03-22T00:18:01;18.38;;;8.48;;
30681;SDS011;17439;48.092;11.842;2024-03-22T00:20:27;15.13;;;7.57;;
30681;SDS011;17439;48.092;11.842;2024-03-22T00:22:52;16.00;;;7.75;;
30681;SDS011;17439;48.092;11.842;2024-03-22T00:25:18;13.40;;;7.97;;
30681;SDS011;17439;48.092;11.842;2024-03-22T00:27:43;12.55;;;6.97;;
30681;SDS011;17439;48.092;11.842;2024-03-22T00:30:09;12.45;;;6.93;;
30681;SDS011;17439;48.092;11.842;2024-03-22T00:32:35;11.80;;;6.55;;
30681;SDS011;17439;48.092;11.842;2024-03-22T00:35:01;11.95;;;6.55;;
30681;SDS011;17439;48.092;11.842;2024-03-22T00:37:26;12.93;;;7.22;;
30681;SDS011;17439;48.092;11.842;2024-03-22T00:39:52;13.82;;;7.32;;
30681;SDS011;17439;48.092;11.842;2024-03-22T00:42:17;14.73;;;7.28;;
30681;SDS011;17439;48.092;11.842;2024-03-22T00:44:43;12.20;;;6.93;;
30681;SDS011;17439;48.092;11.842;2024-03-22T00:47:09;18.55;;;8.65;;
30681;SDS011;17439;48.092;11.842;2024-03-22T00:49:34;14.23;;;7.05;;
30681;SDS011;17439;48.092;11.842;2024-03-22T00:52:00;16.48;;;8.27;;
30681;SDS011;17439;48.092;11.842;2024-03-22T00:54:26;15.60;;;8.27;;
30681;SDS011;17439;48.092;11.842;2024-03-22T00:56:51;18.90;;;8.27;;
30681;SDS011;17439;48.092;11.842;2024-03-22T00:59:17;15.57;;;8.43;;
30681;SDS011;17439;48.092;11.842;2024-03-22T01:01:42;17.23;;;7.57;;
30681;SDS011;17439;48.092;11.842;2024-03-22T01:04:08;19.08;;;8.63;;
30681;SDS011;17439;48.092;11.842;2024-03-22T01:06:34;16.92;;;7.82;;
30681;SDS011;17439;48.092;11.842;2024-03-22T01:09:00;16.48;;;8.32;;
30681;SDS011;17439;48.092;11.842;2024-03-22T01:11:26;14.25;;;7.15;;
30681;SDS011;17439;48.092;11.842;2024-03-22T01:13:51;15.60;;;8.02;;
30681;SDS011;17439;48.092;11.842;2024-03-22T01:16:17;14.93;;;7.90;;
30681;SDS011;17439;48.092;11.842;2024-03-22T01:18:42;14.40;;;7.30;;
30681;SDS011;17439;48.092;11.842;2024-03-22T01:21:08;12.68;;;7.10;;
30681;SDS011;17439;48.092;11.842;2024-03-22T01:23:34;11.00;;;6.75;;
30681;SDS011;17439;48.092;11.842;2024-03-22T01:25:59;14.43;;;7.47;;
30681;SDS011;17439;48.092;11.842;2024-03-22T01:28:25;14.93;;;7.47;;
30681;SDS011;17439;48.092;11.842;2024-03-22T01:30:51;14.02;;;7.38;;
30681;SDS011;17439;48.092;11.842;2024-03-22T01:33:16;16.40;;;8.38;;
30681;SDS011;17439;48.092;11.842;2024-03-22T01:35:42;15.32;;;7.15;;
30681;SDS011;17439;48.092;11.842;2024-03-22T01:38:08;13.90;;;7.70;;
30681;SDS011;17439;48.092;11.842;2024-03-22T01:40:33;13.05;;;7.13;;
30681;SDS011;17439;48.092;11.842;2024-03-22T01:42:59;15.65;;;7.45;;
30681;SDS011;17439;48.092;11.842;2024-03-22T01:45:25;15.98;;;8.60;;
30681;SDS011;17439;48.092;11.842;2024-03-22T01:47:51;15.57;;;7.53;;
30681;SDS011;17439;48.092;11.842;2024-03-22T01:50:18;15.60;;;7.65;;
30681;SDS011;17439;48.092;11.842;2024-03-22T01:52:43;15.90;;;8.27;;
30681;SDS011;17439;48.092;11.842;2024-03-22T01:55:09;14.38;;;7.57;;
30681;SDS011;17439;48.092;11.842;2024-03-22T01:57:35;15.90;;;8.05;;
30681;SDS011;17439;48.092;11.842;2024-03-22T02:00:01;17.13;;;8.23;;
30681;SDS011;17439;48.092;11.842;2024-03-22T02:02:27;15.23;;;8.07;;
30681;SDS011;17439;48.092;11.842;2024-03-22T02:04:53;14.98;;;7.38;;
30681;SDS011;17439;48.092;11.842;2024-03-22T02:07:18;15.70;;;7.15;;
30681;SDS011;17439;48.092;11.842;2024-03-22T02:09:44;15.30;;;7.38;;
30681;SDS011;17439;48.092;11.842;2024-03-22T02:12:10;17.70;;;7.55;;
30681;SDS011;17439;48.092;11.842;2024-03-22T02:14:36;14.52;;;7.63;;
30681;SDS011;17439;48.092;11.842;2024-03-22T02:17:02;16.08;;;8.35;;
30681;SDS011;17439;48.092;11.842;2024-03-22T02:19:27;18.33;;;7.57;;
30681;SDS011;17439;48.092;11.842;2024-03-22T02:21:53;15.85;;;7.72;;
30681;SDS011;17439;48.092;11.842;2024-03-22T02:24:19;20.40;;;9.20;;
30681;SDS011;17439;48.092;11.842;2024-03-22T02:26:44;17.58;;;8.27;;
30681;SDS011;17439;48.092;11.842;2024-03-22T02:29:10;15.60;;;7.60;;
30681;SDS011;17439;48.092;11.842;2024-03-22T02:31:35;16.13;;;7.30;;
30681;SDS011;17439;48.092;11.842;2024-03-22T02:34:01;16.33;;;8.48;;
30681;SDS011;17439;48.092;11.842;2024-03-22T02:36:27;14.48;;;7.90;;
30681;SDS011;17439;48.092;11.842;2024-03-22T02:38:53;14.70;;;7.43;;
30681;SDS011;17439;48.092;11.842;2024-03-22T02:41:19;17.33;;;8.63;;
30681;SDS011;17439;48.092;11.842;2024-03-22T02:43:44;14.98;;;7.90;;
30681;SDS011;17439;48.092;11.842;2024-03-22T02:46:10;15.75;;;8.45;;
30681;SDS011;17439;48.092;11.842;2024-03-22T02:48:36;15.75;;;8.18;;
30681;SDS011;17439;48.092;11.842;2024-03-22T02:51:01;16.70;;;8.32;;
30681;SDS011;17439;48.092;11.842;2024-03-22T02:53:27;14.13;;;7.57;;
30681;SDS011;17439;48.092;11.842;2024-03-22T02:55:53;13.20;;;7.30;;
30681;SDS011;17439;48.092;11.842;2024-03-22T02:58:19;18.90;;;8.80;;
30681;SDS011;17439;48.092;11.842;2024-03-22T03:00:45;18.73;;;8.95;;
30681;SDS011;17439;48.092;11.842;2024-03-22T03:03:11;17.33;;;9.23;;
30681;SDS011;17439;48.092;11.842;2024-03-22T03:05:37;17.23;;;8.25;;
30681;SDS011;17439;48.092;11.842;2024-03-22T03:08:02;14.90;;;7.60;;
30681;SDS011;17439;48.092;11.842;2024-03-22T03:10:28;17.77;;;7.93;;
30681;SDS011;17439;48.092;11.842;2024-03-22T03:12:54;17.85;;;8.32;;
30681;SDS011;17439;48.092;11.842;2024-03-22T03:15:20;16.55;;;8.95;;
30681;SDS011;17439;48.092;11.842;2024-03-22T03:17:46;15.80;;;7.53;;
30681;SDS011;17439;48.092;11.842;2024-03-22T03:20:14;13.70;;;7.72;;
30681;SDS011;17439;48.092;11.842;2024-03-22T03:22:40;14.65;;;7.55;;
30681;SDS011;17439;48.092;11.842;2024-03-22T03:25:05;17.23;;;7.55;;
30681;SDS011;17439;48.092;11.842;2024-03-22T03:27:31;20.77;;;8.73;;
30681;SDS011;17439;48.092;11.842;2024-03-22T03:29:57;16.10;;;8.25;;
30681;SDS011;17439;48.092;11.842;2024-03-22T03:32:23;16.05;;;7.63;;
30681;SDS011;17439;48.092;11.842;2024-03-22T03:34:49;14.88;;;7.75;;
30681;SDS011;17439;48.092;11.842;2024-03-22T03:37:14;14.52;;;7.22;;
30681;SDS011;17439;48.092;11.842;2024-03-22T03:39:40;16.75;;;8.27;;
30681;SDS011;17439;48.092;11.842;2024-03-22T03:42:06;17.05;;;8.25;;
30681;SDS011;17439;48.092;11.842;2024-03-22T03:44:32;19.75;;;8.43;;
30681;SDS011;17439;48.092;11.842;2024-03-22T03:46:58;18.63;;;8.52;;
30681;SDS011;17439;48.092;11.842;2024-03-22T03:49:26;18.88;;;8.07;;
30681;SDS011;17439;48.092;11.842;2024-03-22T03:51:51;16.75;;;8.13;;
30681;SDS011;17439;48.092;11.842;2024-03-22T03:54:17;17.08;;;8.00;;
30681;SDS011;17439;48.092;11.842;2024-03-22T03:56:42;16.90;;;8.35;;
30681;SDS011;17439;48.092;11.842;2024-03-22T03:59:08;18.17;;;9.18;;
30681;SDS011;17439;48.092;11.842;2024-03-22T04:01:34;18.23;;;8.40;;
30681;SDS011;17439;48.092;11.842;2024-03-22T04:03:59;16.42;;;8.30;;
30681;SDS011;17439;48.092;11.842;2024-03-22T04:06:25;16.65;;;8.48;;
30681;SDS011;17439;48.092;11.842;2024-03-22T04:08:51;19.05;;;8.85;;
30681;SDS011;17439;48.092;11.842;2024-03-22T04:11:16;18.25;;;9.75;;
30681;SDS011;17439;48.092;11.842;2024-03-22T04:13:42;16.65;;;8.20;;
30681;SDS011;17439;48.092;11.842;2024-03-22T04:16:07;17.85;;;8.35;;
30681;SDS011;17439;48.092;11.842;2024-03-22T04:18:33;17.23;;;8.40;;
30681;SDS011;17439;48.092;11.842;2024-03-22T04:20:59;16.05;;;7.60;;
30681;SDS011;17439;48.092;11.842;2024-03-22T04:23:25;17.05;;;7.70;;
30681;SDS011;17439;48.092;11.842;2024-03-22T04:25:51;12.93;;;7.15;;
30681;SDS011;17439;48.092;11.842;2024-03-22T04:28:24;15.88;;;7.85;;
30681;SDS011;17439;48.092;11.842;2024-03-22T04:31:00;18.13;;;8.60;;
30681;SDS011;17439;48.092;11.842;2024-03-22T04:33:30;18.63;;;7.85;;
30681;SDS011;17439;48.092;11.842;2024-03-22T04:35:57;18.02;;;8.80;;
30681;SDS011;17439;48.092;11.842;2024-03-22T04:38:25;15.25;;;8.00;;
30681;SDS011;17439;48.092;11.842;2024-03-22T04:40:51;17.23;;;8.57;;
30681;SDS011;17439;48.092;11.842;2024-03-22T04:43:17;15.25;;;7.97;;
30681;SDS011;17439;48.092;11.842;2024-03-22T04:45:43;17.83;;;8.07;;
30681;SDS011;17439;48.092;11.842;2024-03-22T04:48:10;15.60;;;7.75;;
30681;SDS011;17439;48.092;11.842;2024-03-22T04:50:37;14.90;;;7.75;;
30681;SDS011;17439;48.092;11.842;2024-03-22T04:53:03;17.58;;;7.93;;
30681;SDS011;17439;48.092;11.842;2024-03-22T04:55:29;14.32;;;7.28;;
30681;SDS011;17439;48.092;11.842;2024-03-22T04:57:55;17.63;;;8.75;;
30681;SDS011;17439;48.092;11.842;2024-03-22T05:00:20;14.68;;;6.78;;
30681;SDS011;17439;48.092;11.842;2024-03-22T05:02:46;16.63;;;6.57;;
30681;SDS011;17439;48.092;11.842;2024-03-22T05:05:12;12.38;;;6.57;;
30681;SDS011;17439;48.092;11.842;2024-03-22T05:07:37;15.65;;;7.70;;
30681;SDS011;17439;48.092;11.842;2024-03-22T05:10:03;16.27;;;7.25;;
30681;SDS011;17439;48.092;11.842;2024-03-22T05:12:29;20.15;;;8.00;;
30681;SDS011;17439;48.092;11.842;2024-03-22T05:14:55;16.73;;;7.93;;
30681;SDS011;17439;48.092;11.842;2024-03-22T05:17:21;17.95;;;8.50;;
30681;SDS011;17439;48.092;11.842;2024-03-22T05:19:46;22.00;;;7.47;;
30681;SDS011;17439;48.092;11.842;2024-03-22T05:22:12;15.10;;;7.72;;
30681;SDS011;17439;48.092;11.842;2024-03-22T05:24:38;19.92;;;7.32;;
30681;SDS011;17439;48.092;11.842;2024-03-22T05:27:03;16.27;;;8.45;;
30681;SDS011;17439;48.092;11.842;2024-03-22T05:29:29;17.45;;;8.65;;
30681;SDS011;17439;48.092;11.842;2024-03-22T05:31:55;16.55;;;8.60;;
30681;SDS011;17439;48.092;11.842;2024-03-22T05:34:20;16.05;;;7.32;;
30681;SDS011;17439;48.092;11.842;2024-03-22T05:36:46;17.35;;;8.15;;
30681;SDS011;17439;48.092;11.842;2024-03-22T05:39:12;18.98;;;8.85;;
30681;SDS011;17439;48.092;11.842;2024-03-22T05:41:38;22.30;;;7.60;;
30681;SDS011;17439;48.092;11.842;2024-03-22T05:44:04;14.25;;;7.40;;
30681;SDS011;17439;48.092;11.842;2024-03-22T05:46:30;16.52;;;8.30;;
30681;SDS011;17439;48.092;11.842;2024-03-22T05:48:56;15.18;;;8.25;;
30681;SDS011;17439;48.092;11.842;2024-03-22T05:51:22;15.27;;;8.07;;
30681;SDS011;17439;48.092;11.842;2024-03-22T05:53:48;12.77;;;7.60;;
30681;SDS011;17439;48.092;11.842;2024-03-22T05:56:14;15.23;;;7.95;;
30681;SDS011;17439;48.092;11.842;2024-03-22T05:58:39;12.65;;;6.22;;
30681;SDS011;17439;48.092;11.842;2024-03-22T06:01:05;14.50;;;6.78;;
30681;SDS011;17439;48.092;11.842;2024-03-22T06:03:31;14.43;;;6.28;;
30681;SDS011;17439;48.092;11.842;2024-03-22T06:05:58;10.82;;;5.97;;
30681;SDS011;17439;48.092;11.842;2024-03-22T06:10:52;12.95;;;6.35;;
30681;SDS011;17439;48.092;11.842;2024-03-22T06:13:18;15.97;;;7.47;;
30681;SDS011;17439;48.092;11.842;2024-03-22T06:15:44;13.57;;;6.75;;
30681;SDS011;17439;48.092;11.842;2024-03-22T06:18:09;16.75;;;7.10;;
30681;SDS011;17439;48.092;11.842;2024-03-22T06:20:35;13.32;;;7.10;;
30681;SDS011;17439;48.092;11.842;2024-03-22T06:23:01;13.73;;;6.47;;
30681;SDS011;17439;48.092;11.842;2024-03-22T06:25:26;11.85;;;6.75;;
30681;SDS011;17439;48.092;11.842;2024-03-22T06:27:52;14.32;;;6.88;;
30681;SDS011;17439;48.092;11.842;2024-03-22T06:30:17;11.68;;;7.13;;
30681;SDS011;17439;48.092;11.842;2024-03-22T06:32:43;13.48;;;7.03;;
30681;SDS011;17439;48.092;11.842;2024-03-22T06:35:09;15.13;;;7.47;;
30681;SDS011;17439;48.092;11.842;2024-03-22T06:37:34;15.05;;;7.07;;
30681;SDS011;17439;48.092;11.842;2024-03-22T06:40:00;14.50;;;7.15;;
30681;SDS011;17439;48.092;11.842;2024-03-22T06:42:25;13.18;;;7.18;;
30681;SDS011;17439;48.092;11.842;2024-03-22T06:44:51;16.77;;;7.15;;
30681;SDS011;17439;48.092;11.842;2024-03-22T06:47:17;14.98;;;7.85;;
30681;SDS011;17439;48.092;11.842;2024-03-22T06:49:42;13.60;;;7.28;;
30681;SDS011;17439;48.092;11.842;2024-03-22T06:52:08;14.05;;;7.57;;
30681;SDS011;17439;48.092;11.842;2024-03-22T06:54:33;14.82;;;6.70;;
30681;SDS011;17439;48.092;11.842;2024-03-22T06:56:59;13.02;;;7.03;;
30681;SDS011;17439;48.092;11.842;2024-03-22T06:59:25;15.07;;;7.10;;
30681;SDS011;17439;48.092;11.842;2024-03-22T07:01:50;14.63;;;7.13;;
30681;SDS011;17439;48.092;11.842;2024-03-22T07:04:16;13.48;;;6.97;;
30681;SDS011;17439;48.092;11.842;2024-03-22T07:06:42;14.68;;;7.30;;
30681;SDS011;17439;48.092;11.842;2024-03-22T07:09:07;13.05;;;6.90;;
30681;SDS011;17439;48.092;11.842;2024-03-22T07:11:33;16.00;;;7.78;;
30681;SDS011;17439;48.092;11.842;2024-03-22T07:13:59;18.85;;;8.20;;
30681;SDS011;17439;48.092;11.842;2024-03-22T07:16:24;18.33;;;9.13;;
30681;SDS011;17439;48.092;11.842;2024-03-22T07:18:50;12.85;;;7.63;;
30681;SDS011;17439;48.092;11.842;2024-03-22T07:21:15;15.60;;;8.23;;
30681;SDS011;17439;48.092;11.842;2024-03-22T07:23:41;17.98;;;7.88;;
30681;SDS011;17439;48.092;11.842;2024-03-22T07:26:07;14.00;;;8.35;;
30681;SDS011;17439;48.092;11.842;2024-03-22T07:28:32;19.65;;;8.18;;
30681;SDS011;17439;48.092;11.842;2024-03-22T07:30:58;15.85;;;7.65;;
30681;SDS011;17439;48.092;11.842;2024-03-22T07:33:24;13.65;;;7.28;;
30681;SDS011;17439;48.092;11.842;2024-03-22T07:35:50;15.48;;;7.40;;
30681;SDS011;17439;48.092;11.842;2024-03-22T07:38:15;17.17;;;8.63;;
30681;SDS011;17439;48.092;11.842;2024-03-22T07:40:41;18.40;;;6.72;;
30681;SDS011;17439;48.092;11.842;2024-03-22T07:43:07;13.57;;;7.90;;
30681;SDS011;17439;48.092;11.842;2024-03-22T07:45:36;15.43;;;8.02;;
30681;SDS011;17439;48.092;11.842;2024-03-22T07:48:02;11.95;;;7.05;;
30681;SDS011;17439;48.092;11.842;2024-03-22T07:50:28;16.33;;;7.75;;
30681;SDS011;17439;48.092;11.842;2024-03-22T07:52:54;12.65;;;6.95;;
30681;SDS011;17439;48.092;11.842;2024-03-22T07:55:20;11.02;;;6.78;;
30681;SDS011;17439;48.092;11.842;2024-03-22T07:57:45;11.60;;;6.47;;
30681;SDS011;17439;48.092;11.842;2024-03-22T08:00:11;9.40;;;6.30;;
30681;SDS011;17439;48.092;11.842;2024-03-22T08:02:37;10.75;;;5.45;;
30681;SDS011;17439;48.092;11.842;2024-03-22T08:05:03;13.65;;;7.28;;
30681;SDS011;17439;48.092;11.842;2024-03-22T08:07:29;8.60;;;5.68;;
30681;SDS011;17439;48.092;11.842;2024-03-22T08:09:55;9.88;;;5.78;;
30681;SDS011;17439;48.092;11.842;2024-03-22T08:12:20;14.95;;;6.68;;
30681;SDS011;17439;48.092;11.842;2024-03-22T08:14:46;9.73;;;6.07;;
30681;SDS011;17439;48.092;11.842;2024-03-22T08:17:12;11.07;;;6.40;;
30681;SDS011;17439;48.092;11.842;2024-03-22T08:19:37;8.30;;;5.45;;
30681;SDS011;17439;48.092;11.842;2024-03-22T08:22:03;7.10;;;4.85;;
30681;SDS011;17439;48.092;11.842;2024-03-22T08:24:29;11.25;;;6.13;;
30681;SDS011;17439;48.092;11.842;2024-03-22T08:26:55;7.65;;;4.70;;
30681;SDS011;17439;48.092;11.842;2024-03-22T08:29:20;7.93;;;5.35;;
30681;SDS011;17439;48.092;11.842;2024-03-22T08:31:46;7.97;;;5.47;;
30681;SDS011;17439;48.092;11.842;2024-03-22T08:34:12;8.05;;;4.70;;
30681;SDS011;17439;48.092;11.842;2024-03-22T08:36:37;9.82;;;5.53;;
30681;SDS011;17439;48.092;11.842;2024-03-22T08:39:03;9.52;;;6.05;;
30681;SDS011;17439;48.092;11.842;2024-03-22T08:41:29;8.27;;;5.60;;
30681;SDS011;17439;48.092;11.842;2024-03-22T08:43:54;9.68;;;6.13;;
30681;SDS011;17439;48.092;11.842;2024-03-22T08:46:20;11.80;;;5.93;;
30681;SDS011;17439;48.092;11.842;2024-03-22T08:48:46;13.75;;;6.55;;
30681;SDS011;17439;48.092;11.842;2024-03-22T08:51:11;11.27;;;6.07;;
30681;SDS011;17439;48.092;11.842;2024-03-22T08:53:37;12.15;;;6.28;;
30681;SDS011;17439;48.092;11.842;2024-03-22T08:56:03;10.50;;;5.72;;
30681;SDS011;17439;48.092;11.842;2024-03-22T08:58:29;12.43;;;6.70;;
30681;SDS011;17439;48.092;11.842;2024-03-22T09:00:54;9.90;;;5.95;;
30681;SDS011;17439;48.092;11.842;2024-03-22T09:03:20;11.63;;;7.22;;
30681;SDS011;17439;48.092;11.842;2024-03-22T09:05:46;13.23;;;6.05;;
30681;SDS011;17439;48.092;11.842;2024-03-22T09:08:11;11.18;;;5.85;;
30681;SDS011;17439;48.092;11.842;2024-03-22T09:10:37;11.70;;;7.75;;
30681;SDS011;17439;48.092;11.842;2024-03-22T09:13:02;9.40;;;5.85;;
30681;SDS011;17439;48.092;11.842;2024-03-22T09:15:28;12.20;;;7.10;;
30681;SDS011;17439;48.092;11.842;2024-03-22T09:17:54;10.23;;;6.68;;
30681;SDS011;17439;48.092;11.842;2024-03-22T09:20:20;12.63;;;8.13;;
30681;SDS011;17439;48.092;11.842;2024-03-22T09:22:46;14.43;;;7.28;;
30681;SDS011;17439;48.092;11.842;2024-03-22T09:25:11;12.75;;;6.90;;
30681;SDS011;17439;48.092;11.842;2024-03-22T09:27:37;8.65;;;5.32;;
30681;SDS011;17439;48.092;11.842;2024-03-22T09:30:03;9.45;;;5.35;;
30681;SDS011;17439;48.092;11.842;2024-03-22T09:32:29;11.40;;;7.07;;
30681;SDS011;17439;48.092;11.842;2024-03-22T09:34:54;10.70;;;5.88;;
30681;SDS011;17439;48.092;11.842;2024-03-22T09:37:20;14.68;;;6.40;;
30681;SDS011;17439;48.092;11.842;2024-03-22T09:39:45;10.30;;;5.50;;
30681;SDS011;17439;48.092;11.842;2024-03-22T09:42:16;8.75;;;5.70;;
30681;SDS011;17439;48.092;11.842;2024-03-22T09:44:48;10.50;;;5.53;;
30681;SDS011;17439;48.092;11.842;2024-03-22T09:47:15;9.88;;;5.97;;
30681;SDS011;17439;48.092;11.842;2024-03-22T09:49:41;9.82;;;5.88;;
30681;SDS011;17439;48.092;11.842;2024-03-22T09:52:08;5.70;;;4.22;;
30681;SDS011;17439;48.092;11.842;2024-03-22T09:54:36;8.32;;;4.53;;
30681;SDS011;17439;48.092;11.842;2024-03-22T09:57:03;7.85;;;5.07;;
30681;SDS011;17439;48.092;11.842;2024-03-22T09:59:29;8.10;;;5.50;;
30681;SDS011;17439;48.092;11.842;2024-03-22T10:01:55;9.40;;;5.10;;
30681;SDS011;17439;48.092;11.842;2024-03-22T10:04:23;6.88;;;4.93;;
30681;SDS011;17439;48.092;11.842;2024-03-22T10:06:49;10.00;;;5.78;;
30681;SDS011;17439;48.092;11.842;2024-03-22T10:09:15;12.68;;;6.05;;
30681;SDS011;17439;48.092;11.842;2024-03-22T10:11:41;6.55;;;4.88;;
30681;SDS011;17439;48.092;11.842;2024-03-22T10:14:06;9.73;;;5.07;;
30681;SDS011;17439;48.092;11.842;2024-03-22T10:16:33;8.02;;;6.18;;
30681;SDS011;17439;48.092;11.842;2024-03-22T10:18:59;9.52;;;5.95;;
30681;SDS011;17439;48.092;11.842;2024-03-22T10:21:25;8.07;;;5.80;;
30681;SDS011;17439;48.092;11.842;2024-03-22T10:23:53;9.45;;;5.75;;
30681;SDS011;17439;48.092;11.842;2024-03-22T10:26:18;11.90;;;6.75;;
30681;SDS011;17439;48.092;11.842;2024-03-22T10:28:45;9.30;;;5.22;;
30681;SDS011;17439;48.092;11.842;2024-03-22T10:31:14;10.07;;;5.05;;
30681;SDS011;17439;48.092;11.842;2024-03-22T10:33:40;13.38;;;6.60;;
30681;SDS011;17439;48.092;11.842;2024-03-22T10:36:06;11.00;;;5.25;;
30681;SDS011;17439;48.092;11.842;2024-03-22T10:38:32;10.85;;;5.45;;
30681;SDS011;17439;48.092;11.842;2024-03-22T10:40:59;12.57;;;6.40;;
30681;SDS011;17439;48.092;11.842;2024-03-22T10:43:25;12.25;;;5.78;;
30681;SDS011;17439;48.092;11.842;2024-03-22T10:45:52;10.52;;;4.60;;
30681;SDS011;17439;48.092;11.842;2024-03-22T10:48:22;5.82;;;4.28;;
30681;SDS011;17439;48.092;11.842;2024-03-22T10:50:50;6.93;;;4.47;;
30681;SDS011;17439;48.092;11.842;2024-03-22T10:53:21;7.95;;;4.45;;
30681;SDS011;17439;48.092;11.842;2024-03-22T10:55:50;5.70;;;3.88;;
30681;SDS011;17439;48.092;11.842;2024-03-22T10:58:20;10.75;;;5.10;;
30681;SDS011;17439;48.092;11.842;2024-03-22T11:00:47;11.35;;;5.78;;
30681;SDS011;17439;48.092;11.842;2024-03-22T11:03:19;8.98;;;5.30;;
30681;SDS011;17439;48.092;11.842;2024-03-22T11:05:54;12.00;;;5.20;;
30681;SDS011;17439;48.092;11.842;2024-03-22T11:08:23;6.20;;;3.65;;
30681;SDS011;17439;48.092;11.842;2024-03-22T11:10:53;5.80;;;4.50;;
30681;SDS011;17439;48.092;11.842;2024-03-22T11:13:20;14.18;;;5.10;;
30681;SDS011;17439;48.092;11.842;2024-03-22T11:15:49;6.88;;;3.83;;
30681;SDS011;17439;48.092;11.842;2024-03-22T11:18:16;8.88;;;3.60;;
30681;SDS011;17439;48.092;11.842;2024-03-22T11:20:42;5.50;;;3.33;;
30681;SDS011;17439;48.092;11.842;2024-03-22T11:23:08;7.10;;;3.75;;
30681;SDS011;17439;48.092;11.842;2024-03-22T11:25:34;7.47;;;4.07;;
30681;SDS011;17439;48.092;11.842;2024-03-22T11:28:00;7.70;;;5.53;;
30681;SDS011;17439;48.092;11.842;2024-03-22T11:30:26;6.13;;;3.85;;
30681;SDS011;17439;48.092;11.842;2024-03-22T11:32:54;7.00;;;3.90;;
30681;SDS011;17439;48.092;11.842;2024-03-22T11:35:21;9.27;;;4.75;;
30681;SDS011;17439;48.092;11.842;2024-03-22T11:37:47;9.57;;;5.10;;
30681;SDS011;17439;48.092;11.842;2024-03-22T11:40:12;7.80;;;4.18;;
30681;SDS011;17439;48.092;11.842;2024-03-22T11:42:41;7.35;;;4.90;;
30681;SDS011;17439;48.092;11.842;2024-03-22T11:45:12;9.48;;;4.95;;
30681;SDS011;17439;48.092;11.842;2024-03-22T11:47:40;8.25;;;4.90;;
30681;SDS011;17439;48.092;11.842;2024-03-22T11:50:06;6.68;;;4.30;;
30681;SDS011;17439;48.092;11.842;2024-03-22T11:52:32;7.60;;;3.42;;
30681;SDS011;17439;48.092;11.842;2024-03-22T11:54:57;6.03;;;3.60;;
30681;SDS011;17439;48.092;11.842;2024-03-22T11:57:24;10.45;;;4.72;;
30681;SDS011;17439;48.092;11.842;2024-03-22T11:59:50;7.00;;;4.55;;
30681;SDS011;17439;48.092;11.842;2024-03-22T12:02:16;11.70;;;5.32;;
30681;SDS011;17439;48.092;11.842;2024-03-22T12:04:43;11.60;;;6.00;;
30681;SDS011;17439;48.092;11.842;2024-03-22T12:07:12;7.07;;;4.53;;
30681;SDS011;17439;48.092;11.842;2024-03-22T12:09:39;6.88;;;4.00;;
30681;SDS011;17439;48.092;11.842;2024-03-22T12:12:08;6.93;;;4.90;;
30681;SDS011;17439;48.092;11.842;2024-03-22T12:14:35;7.35;;;5.05;;
30681;SDS011;17439;48.092;11.842;2024-03-22T12:17:04;6.45;;;4.35;;
30681;SDS011;17439;48.092;11.842;2024-03-22T12:19:33;9.15;;;4.60;;
30681;SDS011;17439;48.092;11.842;2024-03-22T12:21:59;11.07;;;5.20;;
30681;SDS011;17439;48.092;11.842;2024-03-22T12:24:25;8.10;;;4.85;;
30681;SDS011;17439;48.092;11.842;2024-03-22T12:26:52;6.93;;;4.60;;
30681;SDS011;17439;48.092;11.842;2024-03-22T12:29:18;8.23;;;4.97;;
30681;SDS011;17439;48.092;11.842;2024-03-22T12:31:44;12.98;;;5.68;;
30681;SDS011;17439;48.092;11.842;2024-03-22T12:34:10;8.93;;;5.28;;
30681;SDS011;17439;48.092;11.842;2024-03-22T12:36:36;8.68;;;5.32;;
30681;SDS011;17439;48.092;11.842;2024-03-22T12:39:01;11.60;;;5.07;;
30681;SDS011;17439;48.092;11.842;2024-03-22T12:41:27;8.50;;;4.57;;
30681;SDS011;17439;48.092;11.842;2024-03-22T12:43:53;6.85;;;3.83;;
30681;SDS011;17439;48.092;11.842;2024-03-22T12:46:19;5.47;;;3.90;;
30681;SDS011;17439;48.092;11.842;2024-03-22T12:48:44;8.05;;;5.05;;
30681;SDS011;17439;48.092;11.842;2024-03-22T12:51:10;7.82;;;4.15;;
30681;SDS011;17439;48.092;11.842;2024-03-22T12:53:36;5.50;;;4.03;;
30681;SDS011;17439;48.092;11.842;2024-03-22T12:56:01;9.13;;;3.95;;
30681;SDS011;17439;48.092;11.842;2024-03-22T12:58:27;9.90;;;4.65;;
30681;SDS011;17439;48.092;11.842;2024-03-22T13:00:53;7.60;;;3.90;;
30681;SDS011;17439;48.092;11.842;2024-03-22T13:03:18;4.68;;;3.20;;
30681;SDS011;17439;48.092;11.842;2024-03-22T13:05:44;4.45;;;3.30;;
30681;SDS011;17439;48.092;11.842;2024-03-22T13:08:10;6.20;;;3.33;;
30681;SDS011;17439;48.092;11.842;2024-03-22T13:10:35;4.63;;;3.03;;
30681;SDS011;17439;48.092;11.842;2024-03-22T13:13:01;6.68;;;2.70;;
30681;SDS011;17439;48.092;11.842;2024-03-22T13:15:27;3.25;;;2.17;;
30681;SDS011;17439;48.092;11.842;2024-03-22T13:17:52;4.35;;;2.42;;
30681;SDS011;17439;48.092;11.842;2024-03-22T13:20:18;3.67;;;2.63;;
30681;SDS011;17439;48.092;11.842;2024-03-22T13:22:44;3.42;;;2.42;;
30681;SDS011;17439;48.092;11.842;2024-03-22T13:25:10;4.18;;;2.85;;
30681;SDS011;17439;48.092;11.842;2024-03-22T13:27:36;5.95;;;3.70;;
30681;SDS011;17439;48.092;11.842;2024-03-22T13:30:02;4.25;;;2.78;;
30681;SDS011;17439;48.092;11.842;2024-03-22T13:32:28;4.85;;;2.25;;
30681;SDS011;17439;48.092;11.842;2024-03-22T13:34:54;6.50;;;2.70;;
30681;SDS011;17439;48.092;11.842;2024-03-22T13:37:20;4.80;;;2.30;;
30681;SDS011;17439;48.092;11.842;2024-03-22T13:39:49;3.70;;;1.75;;
30681;SDS011;17439;48.092;11.842;2024-03-22T13:42:15;3.33;;;2.50;;
30681;SDS011;17439;48.092;11.842;2024-03-22T13:44:41;3.45;;;2.10;;
30681;SDS011;17439;48.092;11.842;2024-03-22T13:47:07;3.45;;;1.83;;
30681;SDS011;17439;48.092;11.842;2024-03-22T13:49:33;2.90;;;2.40;;
30681;SDS011;17439;48.092;11.842;2024-03-22T13:51:58;3.08;;;1.50;;
30681;SDS011;17439;48.092;11.842;2024-03-22T13:54:25;3.53;;;2.38;;
30681;SDS011;17439;48.092;11.842;2024-03-22T13:56:50;2.90;;;1.90;;
30681;SDS011;17439;48.092;11.842;2024-03-22T13:59:16;3.55;;;2.25;;
30681;SDS011;17439;48.092;11.842;2024-03-22T14:01:42;4.03;;;2.17;;
30681;SDS011;17439;48.092;11.842;2024-03-22T14:04:09;4.18;;;1.70;;
30681;SDS011;17439;48.092;11.842;2024-03-22T14:06:35;6.53;;;1.98;;
30681;SDS011;17439;48.092;11.842;2024-03-22T14:09:02;3.70;;;2.50;;
30681;SDS011;17439;48.092;11.842;2024-03-22T14:11:28;2.72;;;1.50;;
30681;SDS011;17439;48.092;11.842;2024-03-22T14:13:53;4.38;;;2.08;;
30681;SDS011;17439;48.092;11.842;2024-03-22T14:16:19;4.85;;;2.38;;
30681;SDS011;17439;48.092;11.842;2024-03-22T14:18:45;3.00;;;1.73;;
30681;SDS011;17439;48.092;11.842;2024-03-22T14:21:10;3.75;;;1.95;;